Dickinson Theodore Roosevelt Regional Airport
KDIK : now visible

Airfield :











YOU CAN JOIN US ON...

 
LOGIN :

Register | Disclaimer

   EN    FR    IT 

 









Legend :    VFR   Marginal VFR   IFR   Intensive IFR   Very Intensive IFR
Visi :
Ceiling :
>= 8 km
>= 3000ft
5 to 8 km
1000 to 3000 ft
1500m to 5 km
500 to 1000 ft
800 to 1500m
200 to 500 ft
< 800m
< 200 ft
Symbols :   Thunderstorms  Fog  Heavy snow  Heavy precipitations  Wind > 20 kt






- Airport Elevation : 2592 ft


KDIK - Dickinson Theodore Roosevelt Regional

CURRENT METAR :
  • 071456Z AUTO 19008KT 10SM CLR 02/M03 A3051 RMK AO2 SLP360 T00171028 58003

EXPIRED METARs :
  • 071356Z AUTO 19006KT 10SM CLR M03/M06 A3051 RMK AO2 SLP363 T10281061
  • 071256Z AUTO 19007KT 10SM CLR M06/M08 A3051 RMK AO2 SLP368 T10561078

TAF KDIK
Valid from the 07 at 12:00 until the 08 at 12:00 UTC


071120Z 0712/0812 18007KT P6SM SKC
FM071500 20008KT P6SM SKC
FM072100 25009KT P6SM SKC
FM080100 VRB05KT P6SM SKC
KZMP FIR / North America



MET'MAP, your aeronautical weather chart ! - Copyright ORBIFLY December 2007 - Disclaimer

ORBIFLY MET'MAP TEAM :

Programming & Development : Alexandra Zaïnal
Original concept : Baudouin d'Aumeries
Technical & hardware support : Manuel Goepfert
Assistance : Marc-Olivier Méhu




SOURCES & CREDITS :

   NOAA       Earth
Advisory